createdAt,value
2023-10-30T00:03:45.904Z,3.30
2023-10-30T00:08:47.271Z,4.90
2023-10-30T00:13:48.498Z,1.98
2023-10-30T00:18:49.720Z,4.20
2023-10-30T00:23:50.917Z,2.65
2023-10-30T00:28:52.193Z,4.18
2023-10-30T00:33:53.433Z,2.45
2023-10-30T00:38:54.691Z,3.67
2023-10-30T00:43:55.904Z,7.35
2023-10-30T00:48:57.111Z,8.15
2023-10-30T00:53:58.337Z,2.35
2023-10-30T00:58:59.552Z,3.88
2023-10-30T01:04:00.972Z,8.07
2023-10-30T01:09:02.638Z,2.85
2023-10-30T01:14:03.918Z,8.52
2023-10-30T01:19:05.119Z,5.05
2023-10-30T01:24:06.645Z,5.75
2023-10-30T01:29:07.908Z,3.33
2023-10-30T01:34:09.198Z,2.53
2023-10-30T01:39:10.513Z,10.50
2023-10-30T01:44:11.739Z,8.55
2023-10-30T01:49:12.988Z,10.70
2023-10-30T01:54:14.621Z,4.65
2023-10-30T01:59:15.866Z,5.00
2023-10-30T02:04:17.155Z,3.72
2023-10-30T02:09:18.429Z,8.55
2023-10-30T02:14:19.685Z,3.45
2023-10-30T02:19:24.324Z,9.90
2023-10-30T02:24:25.568Z,6.72
2023-10-30T02:29:26.831Z,5.10
2023-10-30T02:34:28.098Z,8.40
2023-10-30T02:39:29.437Z,8.10
2023-10-30T02:44:30.726Z,4.50
2023-10-30T02:49:31.962Z,6.38
2023-10-30T02:54:33.241Z,3.38
2023-10-30T02:59:34.496Z,5.78
2023-10-30T03:04:35.779Z,6.53
2023-10-30T03:09:37.150Z,7.38
2023-10-30T03:14:38.444Z,13.43
2023-10-30T03:19:39.757Z,6.82
2023-10-30T03:24:41.000Z,7.20
2023-10-30T03:29:42.556Z,16.35
2023-10-30T03:34:43.788Z,13.15
2023-10-30T03:39:45.091Z,12.27
2023-10-30T03:44:46.383Z,11.75
2023-10-30T03:49:47.786Z,9.25
2023-10-30T03:54:49.668Z,8.25
2023-10-30T03:59:50.937Z,12.20
2023-10-30T04:04:52.140Z,17.48
2023-10-30T04:09:53.358Z,6.60
2023-10-30T04:14:54.628Z,16.92
2023-10-30T04:19:55.823Z,12.70
2023-10-30T04:24:57.052Z,6.28
2023-10-30T04:29:58.334Z,8.57
2023-10-30T04:34:59.545Z,16.70
2023-10-30T04:40:00.766Z,15.90
2023-10-30T04:45:02.072Z,12.32
2023-10-30T04:50:03.291Z,10.63
2023-10-30T04:55:04.661Z,11.43
2023-10-30T05:00:06.255Z,11.63
2023-10-30T05:05:07.542Z,6.50
2023-10-30T05:10:08.851Z,11.43
2023-10-30T05:15:10.201Z,13.40
2023-10-30T05:20:11.626Z,8.60
2023-10-30T05:25:12.851Z,12.32
2023-10-30T05:30:14.527Z,12.93
2023-10-30T05:35:15.824Z,9.18
2023-10-30T05:40:17.183Z,7.85
2023-10-30T05:45:18.495Z,6.57
2023-10-30T05:50:19.756Z,6.60
2023-10-30T05:55:20.998Z,11.30
2023-10-30T06:00:22.238Z,12.40
2023-10-30T06:05:23.463Z,11.23
2023-10-30T06:10:24.760Z,6.00
2023-10-30T06:15:25.992Z,10.82
2023-10-30T06:20:27.229Z,8.48
2023-10-30T06:25:28.461Z,11.50
2023-10-30T06:30:29.848Z,10.40
2023-10-30T06:35:31.109Z,10.43
2023-10-30T06:40:32.312Z,15.35
2023-10-30T06:45:33.558Z,3.42
2023-10-30T06:50:34.776Z,7.18
2023-10-30T06:55:35.980Z,12.98
2023-10-30T07:00:37.246Z,14.43
2023-10-30T07:05:40.208Z,12.93
2023-10-30T07:10:41.448Z,8.02
2023-10-30T07:15:42.715Z,8.80
2023-10-30T07:20:43.939Z,13.90
2023-10-30T07:25:45.173Z,9.27
2023-10-30T07:30:46.602Z,17.45
2023-10-30T07:35:53.069Z,14.75
2023-10-30T07:40:54.666Z,11.95
2023-10-30T07:45:56.143Z,15.15
2023-10-30T07:51:01.053Z,10.95
2023-10-30T07:56:02.279Z,9.13
2023-10-30T08:01:03.636Z,8.85
2023-10-30T08:06:05.127Z,11.75
2023-10-30T08:11:06.319Z,12.75
2023-10-30T08:16:07.556Z,4.18
2023-10-30T08:21:08.910Z,7.75
2023-10-30T08:26:10.197Z,13.70
2023-10-30T08:31:11.748Z,27.10
2023-10-30T08:36:20.435Z,6.10
2023-10-30T08:41:21.681Z,8.73
2023-10-30T08:46:22.895Z,9.32
2023-10-30T08:51:24.512Z,15.68
2023-10-30T08:56:25.768Z,8.45
2023-10-30T09:01:26.993Z,12.32
2023-10-30T09:06:28.377Z,8.52
2023-10-30T09:11:29.761Z,13.90
2023-10-30T09:16:31.000Z,10.65
2023-10-30T09:21:32.303Z,6.25
2023-10-30T09:26:33.519Z,9.68
2023-10-30T09:31:34.813Z,9.38
2023-10-30T09:36:36.321Z,10.93
2023-10-30T09:41:41.434Z,11.18
2023-10-30T09:46:43.130Z,11.02
2023-10-30T09:51:45.327Z,10.13
2023-10-30T09:56:46.599Z,12.15
2023-10-30T10:01:48.436Z,12.93
2023-10-30T10:06:50.800Z,7.28
2023-10-30T10:11:52.052Z,8.98
2023-10-30T10:16:53.333Z,6.35
2023-10-30T10:21:54.583Z,10.20
2023-10-30T10:26:57.399Z,12.07
2023-10-30T10:31:58.662Z,14.43
2023-10-30T10:37:00.344Z,15.65
2023-10-30T10:42:02.557Z,10.43
2023-10-30T10:47:03.845Z,9.40
2023-10-30T10:52:14.767Z,10.25
2023-10-30T10:57:17.568Z,6.30
2023-10-30T11:02:21.791Z,10.45
2023-10-30T11:07:26.833Z,11.50
2023-10-30T11:12:42.700Z,12.95
2023-10-30T11:17:45.461Z,9.25
2023-10-30T11:22:46.709Z,11.57
2023-10-30T11:27:48.041Z,10.48
2023-10-30T11:32:49.440Z,10.80
2023-10-30T11:37:51.392Z,15.10
2023-10-30T11:42:58.635Z,10.80
2023-10-30T11:48:04.725Z,12.63
2023-10-30T11:53:16.483Z,8.25
2023-10-30T11:58:19.276Z,10.18
2023-10-30T12:03:20.485Z,9.05
2023-10-30T12:08:22.812Z,13.43
2023-10-30T12:13:24.090Z,11.00
2023-10-30T12:18:25.328Z,12.25
2023-10-30T12:23:26.587Z,8.45
2023-10-30T12:28:34.666Z,12.02
2023-10-30T12:33:36.003Z,14.02
2023-10-30T12:38:37.275Z,11.55
2023-10-30T12:43:39.103Z,11.98
2023-10-30T12:48:40.341Z,7.40
2023-10-30T12:53:41.596Z,12.43
2023-10-30T12:58:42.810Z,8.75
2023-10-30T13:03:44.124Z,5.53
2023-10-30T13:08:45.872Z,7.68
2023-10-30T13:13:47.082Z,16.60
2023-10-30T13:18:48.322Z,9.98
2023-10-30T13:23:49.598Z,8.95
2023-10-30T13:28:50.840Z,6.28
2023-10-30T13:33:52.728Z,10.18
2023-10-30T13:38:54.028Z,8.07
2023-10-30T13:43:55.253Z,7.35
2023-10-30T13:48:56.488Z,12.98
2023-10-30T13:53:57.744Z,6.20
2023-10-30T13:58:59.076Z,13.05
2023-10-30T14:04:00.324Z,5.65
2023-10-30T14:09:01.541Z,29.88
2023-10-30T14:14:02.771Z,13.80
2023-10-30T14:19:04.008Z,8.70
2023-10-30T14:24:05.545Z,16.67
2023-10-30T14:29:06.754Z,13.27
2023-10-30T14:34:08.063Z,9.98
2023-10-30T14:39:09.343Z,8.13
2023-10-30T14:44:10.571Z,6.50
2023-10-30T14:49:11.843Z,7.78
2023-10-30T14:54:13.068Z,7.07
2023-10-30T14:59:14.284Z,12.50
2023-10-30T15:04:15.627Z,5.55
2023-10-30T15:09:16.919Z,5.88
2023-10-30T15:14:18.120Z,10.98
2023-10-30T15:19:19.338Z,7.93
2023-10-30T15:24:20.591Z,11.15
2023-10-30T15:29:21.809Z,12.18
2023-10-30T15:34:23.467Z,6.47
2023-10-30T15:39:24.782Z,9.80
2023-10-30T15:44:25.988Z,14.05
2023-10-30T15:49:27.189Z,9.40
2023-10-30T15:59:34.595Z,8.95
2023-10-30T16:09:40.263Z,10.68
2023-10-30T16:14:42.738Z,9.75
2023-10-30T16:19:44.920Z,9.20
2023-10-30T16:24:46.412Z,11.18
2023-10-30T16:29:47.667Z,13.25
2023-10-30T16:34:49.056Z,14.02
2023-10-30T16:39:50.526Z,18.73
2023-10-30T16:44:52.111Z,21.73
2023-10-30T16:49:53.569Z,17.55
2023-10-30T16:54:54.929Z,21.05
2023-10-30T16:59:56.138Z,15.77
2023-10-30T17:04:57.410Z,22.95
2023-10-30T17:09:58.683Z,20.38
2023-10-30T17:14:59.910Z,17.10
2023-10-30T17:20:01.208Z,22.20
2023-10-30T17:25:02.479Z,18.90
2023-10-30T17:30:03.839Z,19.60
2023-10-30T17:35:05.606Z,24.95
2023-10-30T17:40:07.321Z,23.83
2023-10-30T17:45:08.656Z,23.27
2023-10-30T17:50:10.167Z,27.02
2023-10-30T17:55:11.468Z,20.80
2023-10-30T18:00:12.912Z,28.38
2023-10-30T18:05:14.126Z,30.88
2023-10-30T18:10:15.394Z,33.90
2023-10-30T18:15:16.727Z,35.95
2023-10-30T18:20:17.950Z,30.92
2023-10-30T18:25:19.160Z,27.83
2023-10-30T18:30:20.424Z,31.23
2023-10-30T18:35:21.953Z,35.20
2023-10-30T18:40:23.228Z,35.33
2023-10-30T18:45:24.600Z,35.97
2023-10-30T18:50:25.842Z,27.30
2023-10-30T18:55:27.105Z,20.90
2023-10-30T19:00:28.337Z,22.02
2023-10-30T19:05:29.589Z,24.83
2023-10-30T19:10:30.872Z,20.23
2023-10-30T19:15:32.241Z,16.45
2023-10-30T19:20:33.633Z,11.60
2023-10-30T19:25:34.884Z,9.80
2023-10-30T19:30:36.206Z,9.48
2023-10-30T19:35:37.519Z,11.70
2023-10-30T19:40:39.057Z,10.52
2023-10-30T19:45:40.429Z,12.13
2023-10-30T19:50:41.688Z,8.07
2023-10-30T19:55:43.045Z,8.32
2023-10-30T20:00:44.316Z,5.18
2023-10-30T20:05:45.626Z,7.45
2023-10-30T20:10:47.059Z,11.95
2023-10-30T20:32:32.807Z,15.07
2023-10-30T20:37:34.521Z,8.38
2023-10-30T20:42:35.755Z,4.18
2023-10-30T20:47:38.017Z,6.85
2023-10-30T20:52:39.412Z,5.25
2023-10-30T20:57:40.881Z,5.22
2023-10-30T21:02:42.329Z,8.05
2023-10-30T21:07:43.664Z,4.38
2023-10-30T21:12:44.971Z,5.97
2023-10-30T21:17:46.253Z,7.70
2023-10-30T21:22:47.554Z,8.50
2023-10-30T21:27:48.849Z,8.70
2023-10-30T21:32:50.291Z,8.02
2023-10-30T21:37:51.727Z,6.65
2023-10-30T21:42:52.985Z,14.15
2023-10-30T21:47:54.274Z,8.95
2023-10-30T21:52:55.579Z,8.43
2023-10-30T21:57:57.928Z,10.80
2023-10-30T22:02:59.279Z,6.28
2023-10-30T22:08:00.691Z,9.10
2023-10-30T22:13:02.038Z,7.78
2023-10-30T22:18:03.333Z,9.13
2023-10-30T22:23:04.642Z,8.05
2023-10-30T22:28:06.139Z,8.48
2023-10-30T22:33:07.626Z,8.95
2023-10-30T22:38:09.638Z,10.27
2023-10-30T22:43:10.915Z,8.80
2023-10-30T22:48:12.300Z,11.40
2023-10-30T22:53:13.614Z,9.82
2023-10-30T22:58:14.912Z,9.05
2023-10-30T23:03:16.394Z,10.13
2023-10-30T23:08:17.955Z,7.47
2023-10-30T23:13:19.234Z,10.52
2023-10-30T23:18:20.590Z,9.40
2023-10-30T23:23:21.995Z,12.30
2023-10-30T23:28:23.234Z,17.23
2023-10-30T23:33:24.464Z,13.40
2023-10-30T23:38:25.838Z,14.70
2023-10-30T23:43:27.108Z,15.43
2023-10-30T23:48:28.429Z,11.73
2023-10-30T23:53:29.695Z,10.73
2023-10-30T23:58:31.052Z,14.77
